sensor_id;sensor_type;location;lat;lon;timestamp;temperature;humidity
11577;DHT22;5844;51.496;6.788;2023-02-01T00:01:45;6.80;99.90
11577;DHT22;5844;51.496;6.788;2023-02-01T00:04:11;6.80;99.90
11577;DHT22;5844;51.496;6.788;2023-02-01T00:06:37;7.20;99.90
11577;DHT22;5844;51.496;6.788;2023-02-01T00:09:03;6.80;99.90
11577;DHT22;5844;51.496;6.788;2023-02-01T00:11:29;6.90;99.90
11577;DHT22;5844;51.496;6.788;2023-02-01T00:13:55;7.00;99.90
11577;DHT22;5844;51.496;6.788;2023-02-01T00:16:23;7.00;99.90
11577;DHT22;5844;51.496;6.788;2023-02-01T00:18:51;7.00;99.90
11577;DHT22;5844;51.496;6.788;2023-02-01T00:21:19;7.00;99.90
11577;DHT22;5844;51.496;6.788;2023-02-01T00:23:45;7.20;99.90
11577;DHT22;5844;51.496;6.788;2023-02-01T00:26:18;7.10;99.90
11577;DHT22;5844;51.496;6.788;2023-02-01T00:28:45;7.10;99.90
11577;DHT22;5844;51.496;6.788;2023-02-01T00:31:10;7.10;99.90
11577;DHT22;5844;51.496;6.788;2023-02-01T00:33:36;7.60;99.90
11577;DHT22;5844;51.496;6.788;2023-02-01T00:36:04;7.20;99.90
11577;DHT22;5844;51.496;6.788;2023-02-01T00:38:31;7.10;99.90
11577;DHT22;5844;51.496;6.788;2023-02-01T00:43:34;7.00;99.90
11577;DHT22;5844;51.496;6.788;2023-02-01T00:46:00;6.80;99.90
11577;DHT22;5844;51.496;6.788;2023-02-01T00:48:26;6.80;99.90
11577;DHT22;5844;51.496;6.788;2023-02-01T00:50:52;6.70;99.90
11577;DHT22;5844;51.496;6.788;2023-02-01T00:53:18;6.70;99.90
11577;DHT22;5844;51.496;6.788;2023-02-01T00:55:48;6.70;99.90
11577;DHT22;5844;51.496;6.788;2023-02-01T00:58:14;6.70;99.90
11577;DHT22;5844;51.496;6.788;2023-02-01T01:00:40;6.80;99.90
11577;DHT22;5844;51.496;6.788;2023-02-01T01:03:06;6.80;99.90
11577;DHT22;5844;51.496;6.788;2023-02-01T01:05:47;6.80;99.90
11577;DHT22;5844;51.496;6.788;2023-02-01T01:08:16;6.80;99.90
11577;DHT22;5844;51.496;6.788;2023-02-01T01:10:42;6.80;99.90
11577;DHT22;5844;51.496;6.788;2023-02-01T01:13:09;7.50;99.90
11577;DHT22;5844;51.496;6.788;2023-02-01T01:15:41;6.90;99.90
11577;DHT22;5844;51.496;6.788;2023-02-01T01:18:07;6.90;99.90
11577;DHT22;5844;51.496;6.788;2023-02-01T01:20:39;6.90;99.90
11577;DHT22;5844;51.496;6.788;2023-02-01T01:23:05;7.00;99.90
11577;DHT22;5844;51.496;6.788;2023-02-01T01:25:32;7.00;99.90
11577;DHT22;5844;51.496;6.788;2023-02-01T01:27:57;7.00;99.90
11577;DHT22;5844;51.496;6.788;2023-02-01T01:30:23;7.00;99.90
11577;DHT22;5844;51.496;6.788;2023-02-01T01:32:49;6.90;99.90
11577;DHT22;5844;51.496;6.788;2023-02-01T01:35:18;6.80;99.90
11577;DHT22;5844;51.496;6.788;2023-02-01T01:37:43;6.80;99.90
11577;DHT22;5844;51.496;6.788;2023-02-01T01:40:10;7.30;99.90
11577;DHT22;5844;51.496;6.788;2023-02-01T01:42:44;6.80;99.90
11577;DHT22;5844;51.496;6.788;2023-02-01T01:45:24;6.80;99.90
11577;DHT22;5844;51.496;6.788;2023-02-01T01:47:56;6.80;99.90
11577;DHT22;5844;51.496;6.788;2023-02-01T01:50:45;6.80;99.90
11577;DHT22;5844;51.496;6.788;2023-02-01T01:53:17;6.80;99.90
11577;DHT22;5844;51.496;6.788;2023-02-01T01:55:45;6.70;99.90
11577;DHT22;5844;51.496;6.788;2023-02-01T01:58:19;6.70;99.90
11577;DHT22;5844;51.496;6.788;2023-02-01T02:00:46;6.70;99.90
11577;DHT22;5844;51.496;6.788;2023-02-01T02:03:26;6.70;99.90
11577;DHT22;5844;51.496;6.788;2023-02-01T02:05:55;6.70;99.90
11577;DHT22;5844;51.496;6.788;2023-02-01T02:08:25;6.90;99.90
11577;DHT22;5844;51.496;6.788;2023-02-01T02:10:52;6.60;99.90
11577;DHT22;5844;51.496;6.788;2023-02-01T02:13:29;6.60;99.90
11577;DHT22;5844;51.496;6.788;2023-02-01T02:16:26;6.60;99.90
11577;DHT22;5844;51.496;6.788;2023-02-01T02:19:22;6.60;99.90
11577;DHT22;5844;51.496;6.788;2023-02-01T02:27:20;6.60;99.90
11577;DHT22;5844;51.496;6.788;2023-02-01T02:30:03;6.50;99.90
11577;DHT22;5844;51.496;6.788;2023-02-01T02:32:52;6.50;99.90
11577;DHT22;5844;51.496;6.788;2023-02-01T02:35:45;6.50;99.90
11577;DHT22;5844;51.496;6.788;2023-02-01T02:38:23;6.70;99.90
11577;DHT22;5844;51.496;6.788;2023-02-01T02:43:52;6.30;99.90
11577;DHT22;5844;51.496;6.788;2023-02-01T02:46:48;6.20;99.90
11577;DHT22;5844;51.496;6.788;2023-02-01T02:52:36;6.10;99.90
11577;DHT22;5844;51.496;6.788;2023-02-01T02:55:25;6.10;99.90
11577;DHT22;5844;51.496;6.788;2023-02-01T02:57:53;6.00;99.90
11577;DHT22;5844;51.496;6.788;2023-02-01T03:00:39;6.00;99.90
11577;DHT22;5844;51.496;6.788;2023-02-01T03:03:24;6.00;99.90
11577;DHT22;5844;51.496;6.788;2023-02-01T03:06:16;6.00;99.90
11577;DHT22;5844;51.496;6.788;2023-02-01T03:08:44;6.00;99.90
11577;DHT22;5844;51.496;6.788;2023-02-01T03:11:13;6.00;99.90
11577;DHT22;5844;51.496;6.788;2023-02-01T03:13:52;6.00;99.90
11577;DHT22;5844;51.496;6.788;2023-02-01T03:19:23;6.00;99.90
11577;DHT22;5844;51.496;6.788;2023-02-01T03:22:00;6.00;99.90
11577;DHT22;5844;51.496;6.788;2023-02-01T03:27:37;6.00;99.90
11577;DHT22;5844;51.496;6.788;2023-02-01T03:32:39;6.10;99.90
11577;DHT22;5844;51.496;6.788;2023-02-01T03:35:28;6.10;99.90
11577;DHT22;5844;51.496;6.788;2023-02-01T03:38:01;6.20;99.90
11577;DHT22;5844;51.496;6.788;2023-02-01T03:40:27;6.20;99.90
11577;DHT22;5844;51.496;6.788;2023-02-01T03:42:59;6.30;99.90
11577;DHT22;5844;51.496;6.788;2023-02-01T03:45:33;6.70;99.90
11577;DHT22;5844;51.496;6.788;2023-02-01T03:48:01;7.10;99.90
11577;DHT22;5844;51.496;6.788;2023-02-01T03:50:28;6.40;99.90
11577;DHT22;5844;51.496;6.788;2023-02-01T03:53:02;6.40;99.90
11577;DHT22;5844;51.496;6.788;2023-02-01T03:55:30;6.50;99.90
11577;DHT22;5844;51.496;6.788;2023-02-01T03:58:13;6.50;99.90
11577;DHT22;5844;51.496;6.788;2023-02-01T04:00:40;6.60;99.90
11577;DHT22;5844;51.496;6.788;2023-02-01T04:03:06;6.60;99.90
11577;DHT22;5844;51.496;6.788;2023-02-01T04:05:33;6.60;99.90
11577;DHT22;5844;51.496;6.788;2023-02-01T04:07:59;6.50;99.90
11577;DHT22;5844;51.496;6.788;2023-02-01T04:10:25;6.50;99.90
11577;DHT22;5844;51.496;6.788;2023-02-01T04:12:51;6.50;99.90
11577;DHT22;5844;51.496;6.788;2023-02-01T04:15:17;6.50;99.90
11577;DHT22;5844;51.496;6.788;2023-02-01T04:17:42;6.40;99.90
11577;DHT22;5844;51.496;6.788;2023-02-01T04:20:09;6.90;99.90
11577;DHT22;5844;51.496;6.788;2023-02-01T04:22:35;6.30;99.90
11577;DHT22;5844;51.496;6.788;2023-02-01T04:25:00;6.30;99.90
11577;DHT22;5844;51.496;6.788;2023-02-01T04:27:26;6.30;99.90
11577;DHT22;5844;51.496;6.788;2023-02-01T04:29:52;6.70;99.90
11577;DHT22;5844;51.496;6.788;2023-02-01T04:32:18;6.50;99.90
11577;DHT22;5844;51.496;6.788;2023-02-01T04:34:45;6.50;99.90
11577;DHT22;5844;51.496;6.788;2023-02-01T04:37:11;6.50;99.90
11577;DHT22;5844;51.496;6.788;2023-02-01T04:39:37;6.50;99.90
11577;DHT22;5844;51.496;6.788;2023-02-01T04:42:03;6.60;99.90
11577;DHT22;5844;51.496;6.788;2023-02-01T04:44:29;6.60;99.90
11577;DHT22;5844;51.496;6.788;2023-02-01T04:46:55;6.60;99.90
11577;DHT22;5844;51.496;6.788;2023-02-01T04:49:21;6.60;99.90
11577;DHT22;5844;51.496;6.788;2023-02-01T04:51:47;6.80;99.90
11577;DHT22;5844;51.496;6.788;2023-02-01T04:54:13;6.70;99.90
11577;DHT22;5844;51.496;6.788;2023-02-01T04:56:39;7.00;99.90
11577;DHT22;5844;51.496;6.788;2023-02-01T04:59:05;6.70;99.90
11577;DHT22;5844;51.496;6.788;2023-02-01T05:01:32;6.70;99.90
11577;DHT22;5844;51.496;6.788;2023-02-01T05:03:57;6.60;99.90
11577;DHT22;5844;51.496;6.788;2023-02-01T05:06:23;6.50;99.90
11577;DHT22;5844;51.496;6.788;2023-02-01T05:08:49;6.50;99.90
11577;DHT22;5844;51.496;6.788;2023-02-01T05:11:16;6.40;99.90
11577;DHT22;5844;51.496;6.788;2023-02-01T05:14:00;6.40;99.90
11577;DHT22;5844;51.496;6.788;2023-02-01T05:16:26;6.40;99.90
11577;DHT22;5844;51.496;6.788;2023-02-01T05:18:53;6.30;99.90
11577;DHT22;5844;51.496;6.788;2023-02-01T05:21:19;6.30;99.90
11577;DHT22;5844;51.496;6.788;2023-02-01T05:23:45;6.20;99.90
11577;DHT22;5844;51.496;6.788;2023-02-01T05:26:29;6.60;99.90
11577;DHT22;5844;51.496;6.788;2023-02-01T05:28:55;6.20;99.90
11577;DHT22;5844;51.496;6.788;2023-02-01T05:31:21;6.40;99.90
11577;DHT22;5844;51.496;6.788;2023-02-01T05:33:47;6.10;99.90
11577;DHT22;5844;51.496;6.788;2023-02-01T05:36:13;6.20;99.90
11577;DHT22;5844;51.496;6.788;2023-02-01T05:38:39;6.20;99.90
11577;DHT22;5844;51.496;6.788;2023-02-01T05:41:04;6.10;99.90
11577;DHT22;5844;51.496;6.788;2023-02-01T05:43:30;6.10;99.90
11577;DHT22;5844;51.496;6.788;2023-02-01T05:45:56;6.00;99.90
11577;DHT22;5844;51.496;6.788;2023-02-01T05:48:21;5.90;99.90
11577;DHT22;5844;51.496;6.788;2023-02-01T05:50:47;5.90;99.90
11577;DHT22;5844;51.496;6.788;2023-02-01T05:53:13;5.90;99.90
11577;DHT22;5844;51.496;6.788;2023-02-01T05:55:39;6.00;99.90
11577;DHT22;5844;51.496;6.788;2023-02-01T05:58:05;6.00;99.90
11577;DHT22;5844;51.496;6.788;2023-02-01T06:00:31;6.00;99.90
11577;DHT22;5844;51.496;6.788;2023-02-01T06:02:57;6.10;99.90
11577;DHT22;5844;51.496;6.788;2023-02-01T06:05:23;6.20;99.90
11577;DHT22;5844;51.496;6.788;2023-02-01T06:07:49;6.30;99.90
11577;DHT22;5844;51.496;6.788;2023-02-01T06:10:16;6.30;99.90
11577;DHT22;5844;51.496;6.788;2023-02-01T06:12:42;6.30;99.90
11577;DHT22;5844;51.496;6.788;2023-02-01T06:15:13;6.30;99.90
11577;DHT22;5844;51.496;6.788;2023-02-01T06:17:41;6.40;99.90
11577;DHT22;5844;51.496;6.788;2023-02-01T06:20:09;6.40;99.90
11577;DHT22;5844;51.496;6.788;2023-02-01T06:22:35;6.40;99.90
11577;DHT22;5844;51.496;6.788;2023-02-01T06:25:05;6.40;99.90
11577;DHT22;5844;51.496;6.788;2023-02-01T06:27:31;6.50;99.90
11577;DHT22;5844;51.496;6.788;2023-02-01T06:29:58;6.50;99.90
11577;DHT22;5844;51.496;6.788;2023-02-01T06:32:24;6.60;99.90
11577;DHT22;5844;51.496;6.788;2023-02-01T06:34:50;6.60;99.90
11577;DHT22;5844;51.496;6.788;2023-02-01T06:37:20;6.60;99.90
11577;DHT22;5844;51.496;6.788;2023-02-01T06:39:46;6.70;99.90
11577;DHT22;5844;51.496;6.788;2023-02-01T06:42:12;7.30;99.90
11577;DHT22;5844;51.496;6.788;2023-02-01T06:44:38;6.70;99.90
11577;DHT22;5844;51.496;6.788;2023-02-01T06:47:04;6.80;99.90
11577;DHT22;5844;51.496;6.788;2023-02-01T06:49:30;6.80;99.90
11577;DHT22;5844;51.496;6.788;2023-02-01T06:51:56;6.80;99.90
11577;DHT22;5844;51.496;6.788;2023-02-01T06:54:21;6.80;99.90
11577;DHT22;5844;51.496;6.788;2023-02-01T06:56:47;6.80;99.90
11577;DHT22;5844;51.496;6.788;2023-02-01T06:59:13;6.90;99.90
11577;DHT22;5844;51.496;6.788;2023-02-01T07:01:39;6.70;99.90
11577;DHT22;5844;51.496;6.788;2023-02-01T07:04:04;6.80;99.90
11577;DHT22;5844;51.496;6.788;2023-02-01T07:06:30;7.00;99.90
11577;DHT22;5844;51.496;6.788;2023-02-01T07:08:57;6.70;99.90
11577;DHT22;5844;51.496;6.788;2023-02-01T07:11:23;6.70;99.90
11577;DHT22;5844;51.496;6.788;2023-02-01T07:13:48;6.80;99.90
11577;DHT22;5844;51.496;6.788;2023-02-01T07:16:17;7.40;99.90
11577;DHT22;5844;51.496;6.788;2023-02-01T07:18:43;6.80;99.90
11577;DHT22;5844;51.496;6.788;2023-02-01T07:21:09;6.80;99.90
11577;DHT22;5844;51.496;6.788;2023-02-01T07:23:35;6.70;99.90
11577;DHT22;5844;51.496;6.788;2023-02-01T07:26:04;6.80;99.90
11577;DHT22;5844;51.496;6.788;2023-02-01T07:28:32;6.80;99.90
11577;DHT22;5844;51.496;6.788;2023-02-01T07:31:06;6.80;99.90
11577;DHT22;5844;51.496;6.788;2023-02-01T07:33:33;6.80;99.90
11577;DHT22;5844;51.496;6.788;2023-02-01T07:36:02;6.80;99.90
11577;DHT22;5844;51.496;6.788;2023-02-01T07:38:28;6.80;99.90
11577;DHT22;5844;51.496;6.788;2023-02-01T07:40:59;6.80;99.90
11577;DHT22;5844;51.496;6.788;2023-02-01T07:43:26;6.80;99.90
11577;DHT22;5844;51.496;6.788;2023-02-01T07:45:53;6.80;99.90
11577;DHT22;5844;51.496;6.788;2023-02-01T07:48:19;6.80;99.90
11577;DHT22;5844;51.496;6.788;2023-02-01T07:50:45;6.80;99.90
11577;DHT22;5844;51.496;6.788;2023-02-01T07:53:11;6.80;99.90
11577;DHT22;5844;51.496;6.788;2023-02-01T07:55:40;7.20;99.90
11577;DHT22;5844;51.496;6.788;2023-02-01T07:58:06;6.80;99.90
11577;DHT22;5844;51.496;6.788;2023-02-01T08:00:33;6.80;99.90
11577;DHT22;5844;51.496;6.788;2023-02-01T08:03:17;7.10;99.90
11577;DHT22;5844;51.496;6.788;2023-02-01T08:05:43;6.80;99.90
11577;DHT22;5844;51.496;6.788;2023-02-01T08:08:09;6.80;99.90
11577;DHT22;5844;51.496;6.788;2023-02-01T08:10:34;7.20;99.90
11577;DHT22;5844;51.496;6.788;2023-02-01T08:13:02;6.80;99.90
11577;DHT22;5844;51.496;6.788;2023-02-01T08:15:29;6.80;99.90
11577;DHT22;5844;51.496;6.788;2023-02-01T08:17:55;6.80;99.90
11577;DHT22;5844;51.496;6.788;2023-02-01T08:20:22;6.70;99.90
11577;DHT22;5844;51.496;6.788;2023-02-01T08:22:49;6.70;99.90
11577;DHT22;5844;51.496;6.788;2023-02-01T08:25:15;6.70;99.90
11577;DHT22;5844;51.496;6.788;2023-02-01T08:27:41;6.70;99.90
11577;DHT22;5844;51.496;6.788;2023-02-01T08:30:07;6.70;99.90
11577;DHT22;5844;51.496;6.788;2023-02-01T08:32:34;6.70;99.90
11577;DHT22;5844;51.496;6.788;2023-02-01T08:35:00;6.80;99.90
11577;DHT22;5844;51.496;6.788;2023-02-01T08:37:25;6.90;99.90
11577;DHT22;5844;51.496;6.788;2023-02-01T08:39:51;6.90;99.90
11577;DHT22;5844;51.496;6.788;2023-02-01T08:42:17;7.00;99.90
11577;DHT22;5844;51.496;6.788;2023-02-01T08:45:02;7.00;99.90
11577;DHT22;5844;51.496;6.788;2023-02-01T08:47:28;7.00;99.90
11577;DHT22;5844;51.496;6.788;2023-02-01T08:49:54;7.00;99.90
11577;DHT22;5844;51.496;6.788;2023-02-01T08:52:20;6.90;99.90
11577;DHT22;5844;51.496;6.788;2023-02-01T08:54:46;7.00;99.90
11577;DHT22;5844;51.496;6.788;2023-02-01T08:57:11;7.00;99.90
11577;DHT22;5844;51.496;6.788;2023-02-01T08:59:37;7.00;99.90
11577;DHT22;5844;51.496;6.788;2023-02-01T09:02:03;7.00;99.90
11577;DHT22;5844;51.496;6.788;2023-02-01T09:04:28;7.00;99.90
11577;DHT22;5844;51.496;6.788;2023-02-01T09:06:54;7.20;99.90
11577;DHT22;5844;51.496;6.788;2023-02-01T09:09:24;7.00;99.90
11577;DHT22;5844;51.496;6.788;2023-02-01T09:11:50;7.00;99.90
11577;DHT22;5844;51.496;6.788;2023-02-01T09:14:16;7.00;99.90
11577;DHT22;5844;51.496;6.788;2023-02-01T09:16:42;7.00;99.90
11577;DHT22;5844;51.496;6.788;2023-02-01T09:19:08;7.00;99.90
11577;DHT22;5844;51.496;6.788;2023-02-01T09:21:34;7.00;99.90
11577;DHT22;5844;51.496;6.788;2023-02-01T09:23:59;7.00;99.90
11577;DHT22;5844;51.496;6.788;2023-02-01T09:26:25;7.20;99.90
11577;DHT22;5844;51.496;6.788;2023-02-01T09:28:51;7.00;99.90
11577;DHT22;5844;51.496;6.788;2023-02-01T09:31:17;7.20;99.90
11577;DHT22;5844;51.496;6.788;2023-02-01T09:33:42;7.10;99.90
11577;DHT22;5844;51.496;6.788;2023-02-01T09:36:08;7.20;99.90
11577;DHT22;5844;51.496;6.788;2023-02-01T09:38:34;7.30;99.90
11577;DHT22;5844;51.496;6.788;2023-02-01T09:41:00;7.40;99.90
11577;DHT22;5844;51.496;6.788;2023-02-01T09:43:36;7.40;99.90
11577;DHT22;5844;51.496;6.788;2023-02-01T09:48:39;7.30;99.90
11577;DHT22;5844;51.496;6.788;2023-02-01T09:51:39;7.40;99.90
11577;DHT22;5844;51.496;6.788;2023-02-01T09:54:18;7.40;99.90
11577;DHT22;5844;51.496;6.788;2023-02-01T09:56:59;7.60;99.90
11577;DHT22;5844;51.496;6.788;2023-02-01T09:59:43;7.60;99.90
11577;DHT22;5844;51.496;6.788;2023-02-01T10:02:19;7.60;99.90
11577;DHT22;5844;51.496;6.788;2023-02-01T10:04:47;7.60;99.90
11577;DHT22;5844;51.496;6.788;2023-02-01T10:07:37;7.50;99.90
11577;DHT22;5844;51.496;6.788;2023-02-01T10:19:24;7.50;99.90
11577;DHT22;5844;51.496;6.788;2023-02-01T10:21:57;7.60;99.90
11577;DHT22;5844;51.496;6.788;2023-02-01T10:24:40;7.60;99.90
11577;DHT22;5844;51.496;6.788;2023-02-01T10:27:22;7.70;99.90
11577;DHT22;5844;51.496;6.788;2023-02-01T10:29:55;7.60;99.90
11577;DHT22;5844;51.496;6.788;2023-02-01T10:32:29;7.60;99.90
11577;DHT22;5844;51.496;6.788;2023-02-01T10:35:02;7.60;99.90
11577;DHT22;5844;51.496;6.788;2023-02-01T10:37:33;7.60;99.90
11577;DHT22;5844;51.496;6.788;2023-02-01T10:40:17;7.70;99.90
11577;DHT22;5844;51.496;6.788;2023-02-01T10:42:45;7.50;99.90
11577;DHT22;5844;51.496;6.788;2023-02-01T10:45:23;7.60;99.90
11577;DHT22;5844;51.496;6.788;2023-02-01T10:47:52;7.80;99.90
11577;DHT22;5844;51.496;6.788;2023-02-01T10:53:18;8.00;99.90
11577;DHT22;5844;51.496;6.788;2023-02-01T10:55:47;8.00;99.90
11577;DHT22;5844;51.496;6.788;2023-02-01T10:58:19;8.00;99.90
11577;DHT22;5844;51.496;6.788;2023-02-01T11:01:03;8.00;99.90
11577;DHT22;5844;51.496;6.788;2023-02-01T11:06:26;8.00;99.90
11577;DHT22;5844;51.496;6.788;2023-02-01T11:11:32;8.20;99.90
11577;DHT22;5844;51.496;6.788;2023-02-01T11:14:02;8.10;99.90
11577;DHT22;5844;51.496;6.788;2023-02-01T11:16:38;8.10;99.90
11577;DHT22;5844;51.496;6.788;2023-02-01T11:19:05;8.10;99.90
11577;DHT22;5844;51.496;6.788;2023-02-01T11:21:33;8.00;99.90
11577;DHT22;5844;51.496;6.788;2023-02-01T11:24:03;8.10;99.90
11577;DHT22;5844;51.496;6.788;2023-02-01T11:26:30;8.00;99.90
11577;DHT22;5844;51.496;6.788;2023-02-01T11:29:04;8.10;99.90
11577;DHT22;5844;51.496;6.788;2023-02-01T11:31:32;8.00;99.90
11577;DHT22;5844;51.496;6.788;2023-02-01T11:37:00;8.10;99.90
11577;DHT22;5844;51.496;6.788;2023-02-01T11:39:33;8.10;99.90
11577;DHT22;5844;51.496;6.788;2023-02-01T11:44:32;7.80;99.90
11577;DHT22;5844;51.496;6.788;2023-02-01T11:47:24;7.70;99.90
11577;DHT22;5844;51.496;6.788;2023-02-01T11:49:58;7.50;99.90
11577;DHT22;5844;51.496;6.788;2023-02-01T11:52:48;7.30;99.90
11577;DHT22;5844;51.496;6.788;2023-02-01T12:01:24;7.10;99.90
11577;DHT22;5844;51.496;6.788;2023-02-01T12:09:31;7.10;99.90
11577;DHT22;5844;51.496;6.788;2023-02-01T12:12:22;7.20;99.90
11577;DHT22;5844;51.496;6.788;2023-02-01T12:15:27;7.20;99.90
11577;DHT22;5844;51.496;6.788;2023-02-01T12:34:05;7.90;99.90
11577;DHT22;5844;51.496;6.788;2023-02-01T12:37:03;8.00;99.90
11577;DHT22;5844;51.496;6.788;2023-02-01T12:39:56;8.10;99.90
11577;DHT22;5844;51.496;6.788;2023-02-01T12:42:45;8.20;99.90
11577;DHT22;5844;51.496;6.788;2023-02-01T12:47:50;8.30;99.90
11577;DHT22;5844;51.496;6.788;2023-02-01T12:52:53;8.20;99.90
11577;DHT22;5844;51.496;6.788;2023-02-01T12:55:42;8.10;99.90
11577;DHT22;5844;51.496;6.788;2023-02-01T12:58:26;8.00;99.90
11577;DHT22;5844;51.496;6.788;2023-02-01T13:00:59;8.00;99.90
11577;DHT22;5844;51.496;6.788;2023-02-01T13:03:41;7.90;99.90
11577;DHT22;5844;51.496;6.788;2023-02-01T13:06:25;7.80;99.90
11577;DHT22;5844;51.496;6.788;2023-02-01T13:11:45;7.80;99.90
11577;DHT22;5844;51.496;6.788;2023-02-01T13:14:33;7.80;99.90
11577;DHT22;5844;51.496;6.788;2023-02-01T13:17:09;7.90;99.90
11577;DHT22;5844;51.496;6.788;2023-02-01T13:19:57;8.00;99.90
11577;DHT22;5844;51.496;6.788;2023-02-01T13:22:50;8.00;99.90
11577;DHT22;5844;51.496;6.788;2023-02-01T13:25:31;8.20;99.90
11577;DHT22;5844;51.496;6.788;2023-02-01T13:28:09;8.30;99.90
11577;DHT22;5844;51.496;6.788;2023-02-01T13:31:17;8.30;99.90
11577;DHT22;5844;51.496;6.788;2023-02-01T13:42:11;8.50;71.80
11577;DHT22;5844;51.496;6.788;2023-02-01T13:44:43;8.60;21.60
11577;DHT22;5844;51.496;6.788;2023-02-01T13:49:44;8.60;1.00
11577;DHT22;5844;51.496;6.788;2023-02-01T13:52:41;8.60;1.00
11577;DHT22;5844;51.496;6.788;2023-02-01T13:55:23;8.50;1.00
11577;DHT22;5844;51.496;6.788;2023-02-01T13:57:58;8.60;1.00
11577;DHT22;5844;51.496;6.788;2023-02-01T14:10:52;8.00;1.00
11577;DHT22;5844;51.496;6.788;2023-02-01T14:26:47;8.60;1.00
11577;DHT22;5844;51.496;6.788;2023-02-01T14:31:54;8.70;1.00
11577;DHT22;5844;51.496;6.788;2023-02-01T14:37:06;8.90;1.00
11577;DHT22;5844;51.496;6.788;2023-02-01T14:42:39;8.90;8.60
11577;DHT22;5844;51.496;6.788;2023-02-01T14:50:43;8.90;6.90
11577;DHT22;5844;51.496;6.788;2023-02-01T14:55:37;8.70;1.00
11577;DHT22;5844;51.496;6.788;2023-02-01T15:08:54;8.70;1.00
11577;DHT22;5844;51.496;6.788;2023-02-01T15:11:21;8.70;3.90
11577;DHT22;5844;51.496;6.788;2023-02-01T15:13:52;8.70;1.00
11577;DHT22;5844;51.496;6.788;2023-02-01T15:16:21;8.70;1.00
11577;DHT22;5844;51.496;6.788;2023-02-01T15:18:48;8.80;1.00
11577;DHT22;5844;51.496;6.788;2023-02-01T15:21:24;8.90;1.00
11577;DHT22;5844;51.496;6.788;2023-02-01T15:23:50;8.90;5.20
11577;DHT22;5844;51.496;6.788;2023-02-01T15:26:35;8.90;12.30
11577;DHT22;5844;51.496;6.788;2023-02-01T15:29:00;8.90;17.70
11577;DHT22;5844;51.496;6.788;2023-02-01T15:31:35;8.90;20.30
11577;DHT22;5844;51.496;6.788;2023-02-01T15:34:01;8.90;33.40
11577;DHT22;5844;51.496;6.788;2023-02-01T15:36:27;8.80;26.30
11577;DHT22;5844;51.496;6.788;2023-02-01T15:39:22;8.90;55.20
11577;DHT22;5844;51.496;6.788;2023-02-01T15:42:09;8.90;56.40
11577;DHT22;5844;51.496;6.788;2023-02-01T15:44:44;8.90;99.90
11577;DHT22;5844;51.496;6.788;2023-02-01T15:47:17;8.90;99.90
11577;DHT22;5844;51.496;6.788;2023-02-01T15:49:50;8.90;99.90
11577;DHT22;5844;51.496;6.788;2023-02-01T15:54:49;8.90;99.90
11577;DHT22;5844;51.496;6.788;2023-02-01T15:57:30;8.90;99.90
11577;DHT22;5844;51.496;6.788;2023-02-01T15:59:58;8.80;99.90
11577;DHT22;5844;51.496;6.788;2023-02-01T16:02:52;8.80;99.90
11577;DHT22;5844;51.496;6.788;2023-02-01T16:05:37;8.80;99.90
11577;DHT22;5844;51.496;6.788;2023-02-01T16:08:12;7.40;99.90
11577;DHT22;5844;51.496;6.788;2023-02-01T16:10:41;8.80;99.90
11577;DHT22;5844;51.496;6.788;2023-02-01T16:13:08;8.80;99.90
11577;DHT22;5844;51.496;6.788;2023-02-01T16:15:34;8.80;99.90
11577;DHT22;5844;51.496;6.788;2023-02-01T16:18:00;8.80;99.90
11577;DHT22;5844;51.496;6.788;2023-02-01T16:20:25;8.70;99.90
11577;DHT22;5844;51.496;6.788;2023-02-01T16:22:51;8.30;99.90
11577;DHT22;5844;51.496;6.788;2023-02-01T16:25:17;8.00;99.90
11577;DHT22;5844;51.496;6.788;2023-02-01T16:27:42;7.80;99.90
11577;DHT22;5844;51.496;6.788;2023-02-01T16:30:09;7.70;99.90
11577;DHT22;5844;51.496;6.788;2023-02-01T16:32:36;7.60;99.90
11577;DHT22;5844;51.496;6.788;2023-02-01T16:37:58;7.80;99.90
11577;DHT22;5844;51.496;6.788;2023-02-01T16:40:24;7.90;99.90
11577;DHT22;5844;51.496;6.788;2023-02-01T16:42:51;8.00;99.90
11577;DHT22;5844;51.496;6.788;2023-02-01T16:45:18;8.10;99.90
11577;DHT22;5844;51.496;6.788;2023-02-01T16:47:48;8.20;99.90
11577;DHT22;5844;51.496;6.788;2023-02-01T16:50:18;8.20;99.90
11577;DHT22;5844;51.496;6.788;2023-02-01T16:52:46;8.30;99.90
11577;DHT22;5844;51.496;6.788;2023-02-01T16:55:18;8.30;99.90
11577;DHT22;5844;51.496;6.788;2023-02-01T16:57:45;8.30;99.90
11577;DHT22;5844;51.496;6.788;2023-02-01T17:00:11;8.40;99.90
11577;DHT22;5844;51.496;6.788;2023-02-01T17:02:38;8.40;99.90
11577;DHT22;5844;51.496;6.788;2023-02-01T17:05:05;8.40;99.90
11577;DHT22;5844;51.496;6.788;2023-02-01T17:07:31;8.50;99.90
11577;DHT22;5844;51.496;6.788;2023-02-01T17:09:57;8.50;99.90
11577;DHT22;5844;51.496;6.788;2023-02-01T17:12:30;8.50;99.90
11577;DHT22;5844;51.496;6.788;2023-02-01T17:14:57;8.50;99.90
11577;DHT22;5844;51.496;6.788;2023-02-01T17:17:35;8.60;99.90
11577;DHT22;5844;51.496;6.788;2023-02-01T17:20:03;8.60;47.20
11577;DHT22;5844;51.496;6.788;2023-02-01T17:22:29;8.60;36.30
11577;DHT22;5844;51.496;6.788;2023-02-01T17:24:55;8.60;9.50
11577;DHT22;5844;51.496;6.788;2023-02-01T17:27:20;8.60;1.00
11577;DHT22;5844;51.496;6.788;2023-02-01T17:29:46;8.60;1.00
11577;DHT22;5844;51.496;6.788;2023-02-01T17:32:18;8.80;1.00
11577;DHT22;5844;51.496;6.788;2023-02-01T17:34:44;8.60;1.00
11577;DHT22;5844;51.496;6.788;2023-02-01T17:37:31;8.60;1.00
11577;DHT22;5844;51.496;6.788;2023-02-01T17:39:57;8.70;1.00
11577;DHT22;5844;51.496;6.788;2023-02-01T17:42:25;8.60;1.00
11577;DHT22;5844;51.496;6.788;2023-02-01T17:44:56;8.60;1.00
11577;DHT22;5844;51.496;6.788;2023-02-01T17:47:23;8.50;1.00
11577;DHT22;5844;51.496;6.788;2023-02-01T17:49:48;8.50;1.00
11577;DHT22;5844;51.496;6.788;2023-02-01T17:52:22;8.50;1.00
11577;DHT22;5844;51.496;6.788;2023-02-01T17:54:48;8.50;1.00
11577;DHT22;5844;51.496;6.788;2023-02-01T17:57:16;8.50;1.00
11577;DHT22;5844;51.496;6.788;2023-02-01T17:59:42;8.60;1.00
11577;DHT22;5844;51.496;6.788;2023-02-01T18:02:26;8.60;1.00
11577;DHT22;5844;51.496;6.788;2023-02-01T18:04:52;8.60;1.00
11577;DHT22;5844;51.496;6.788;2023-02-01T18:07:17;8.50;1.00
11577;DHT22;5844;51.496;6.788;2023-02-01T18:09:43;8.50;1.00
11577;DHT22;5844;51.496;6.788;2023-02-01T18:12:18;8.40;1.00
11577;DHT22;5844;51.496;6.788;2023-02-01T18:14:44;8.40;1.00
11577;DHT22;5844;51.496;6.788;2023-02-01T18:17:10;8.50;1.00
11577;DHT22;5844;51.496;6.788;2023-02-01T18:19:37;8.50;1.00
11577;DHT22;5844;51.496;6.788;2023-02-01T18:22:03;8.50;1.00
11577;DHT22;5844;51.496;6.788;2023-02-01T18:24:30;8.50;1.00
11577;DHT22;5844;51.496;6.788;2023-02-01T18:26:58;8.60;1.00
11577;DHT22;5844;51.496;6.788;2023-02-01T18:29:24;8.60;1.00
11577;DHT22;5844;51.496;6.788;2023-02-01T18:31:49;8.60;1.00
11577;DHT22;5844;51.496;6.788;2023-02-01T18:34:16;8.60;1.00
11577;DHT22;5844;51.496;6.788;2023-02-01T18:36:47;8.80;1.00
11577;DHT22;5844;51.496;6.788;2023-02-01T18:39:13;8.70;1.00
11577;DHT22;5844;51.496;6.788;2023-02-01T18:41:39;8.70;1.00
11577;DHT22;5844;51.496;6.788;2023-02-01T18:44:05;8.70;1.00
11577;DHT22;5844;51.496;6.788;2023-02-01T18:46:37;8.70;1.00
11577;DHT22;5844;51.496;6.788;2023-02-01T18:49:03;8.70;1.00
11577;DHT22;5844;51.496;6.788;2023-02-01T18:51:28;8.70;1.00
11577;DHT22;5844;51.496;6.788;2023-02-01T18:53:54;8.60;1.00
11577;DHT22;5844;51.496;6.788;2023-02-01T18:56:20;8.60;1.00
11577;DHT22;5844;51.496;6.788;2023-02-01T18:58:46;8.60;1.00